sensor_id;sensor_type;location;lat;lon;timestamp;pressure;altitude;pressure_sealevel;temperature;humidity
48800;BME280;34611;47.964;7.982;2023-04-19T00:02:01;97121.03;;;11.13;60.95
48800;BME280;34611;47.964;7.982;2023-04-19T00:09:02;97122.81;;;11.12;60.77
48800;BME280;34611;47.964;7.982;2023-04-19T00:16:02;97128.84;;;11.13;60.76
48800;BME280;34611;47.964;7.982;2023-04-19T00:23:02;97124.44;;;11.13;60.78
48800;BME280;34611;47.964;7.982;2023-04-19T00:30:03;97117.63;;;11.12;60.96
48800;BME280;34611;47.964;7.982;2023-04-19T00:37:04;97119.25;;;11.13;60.75
48800;BME280;34611;47.964;7.982;2023-04-19T00:44:06;97111.56;;;11.12;60.88
48800;BME280;34611;47.964;7.982;2023-04-19T00:51:06;97112.41;;;11.12;60.89
48800;BME280;34611;47.964;7.982;2023-04-19T00:58:07;97098.69;;;11.10;60.85
48800;BME280;34611;47.964;7.982;2023-04-19T01:05:08;97101.16;;;11.12;60.88
48800;BME280;34611;47.964;7.982;2023-04-19T01:12:08;97101.16;;;11.12;60.79
48800;BME280;34611;47.964;7.982;2023-04-19T01:19:08;97094.19;;;11.12;61.03
48800;BME280;34611;47.964;7.982;2023-04-19T01:26:09;97095.94;;;11.12;61.03
48800;BME280;34611;47.964;7.982;2023-04-19T01:33:09;97088.16;;;11.12;60.86
48800;BME280;34611;47.964;7.982;2023-04-19T01:40:10;97089.00;;;11.12;60.95
48800;BME280;34611;47.964;7.982;2023-04-19T01:47:10;97075.28;;;11.10;60.98
48800;BME280;34611;47.964;7.982;2023-04-19T01:54:10;97075.13;;;11.12;60.83
48800;BME280;34611;47.964;7.982;2023-04-19T02:01:11;97069.00;;;11.13;61.04
48800;BME280;34611;47.964;7.982;2023-04-19T02:08:12;97062.97;;;11.12;60.89
48800;BME280;34611;47.964;7.982;2023-04-19T02:15:12;97064.72;;;11.12;60.83
48800;BME280;34611;47.964;7.982;2023-04-19T02:22:12;97063.78;;;11.13;60.93
48800;BME280;34611;47.964;7.982;2023-04-19T02:29:13;97055.16;;;11.12;61.04
48800;BME280;34611;47.964;7.982;2023-04-19T02:36:13;97056.94;;;11.12;60.81
48800;BME280;34611;47.964;7.982;2023-04-19T02:43:13;97054.47;;;11.10;60.77
48800;BME280;34611;47.964;7.982;2023-04-19T02:50:19;97051.72;;;11.12;61.05
48800;BME280;34611;47.964;7.982;2023-04-19T02:57:22;97051.72;;;11.12;60.76
48800;BME280;34611;47.964;7.982;2023-04-19T03:04:23;97041.31;;;11.12;60.76
48800;BME280;34611;47.964;7.982;2023-04-19T03:11:23;97044.78;;;11.12;61.02
48800;BME280;34611;47.964;7.982;2023-04-19T03:18:24;97036.13;;;11.12;61.03
48800;BME280;34611;47.964;7.982;2023-04-19T03:25:26;97036.97;;;11.12;60.79
48800;BME280;34611;47.964;7.982;2023-04-19T03:32:35;97039.56;;;11.12;60.99
48800;BME280;34611;47.964;7.982;2023-04-19T03:39:36;97031.75;;;11.12;61.01
48800;BME280;34611;47.964;7.982;2023-04-19T03:46:40;97026.56;;;11.12;60.92
48800;BME280;34611;47.964;7.982;2023-04-19T03:53:40;97025.72;;;11.12;60.88
48800;BME280;34611;47.964;7.982;2023-04-19T04:00:40;97025.72;;;11.12;60.79
48800;BME280;34611;47.964;7.982;2023-04-19T04:07:41;97025.72;;;11.12;60.76
48800;BME280;34611;47.964;7.982;2023-04-19T04:14:41;97031.75;;;11.12;60.96
48800;BME280;34611;47.964;7.982;2023-04-19T04:21:44;97026.56;;;11.12;60.91
48800;BME280;34611;47.964;7.982;2023-04-19T04:28:46;97030.91;;;11.12;60.86
48800;BME280;34611;47.964;7.982;2023-04-19T04:35:46;97035.19;;;11.13;60.75
48800;BME280;34611;47.964;7.982;2023-04-19T04:42:52;97038.72;;;11.12;60.95
48800;BME280;34611;47.964;7.982;2023-04-19T04:49:53;97037.91;;;11.11;60.97
48800;BME280;34611;47.964;7.982;2023-04-19T04:56:53;97042.16;;;11.12;60.82
48800;BME280;34611;47.964;7.982;2023-04-19T05:03:55;97043.91;;;11.12;60.94
48800;BME280;34611;47.964;7.982;2023-04-19T05:10:55;97034.34;;;11.12;60.91
48800;BME280;34611;47.964;7.982;2023-04-19T05:17:59;97039.56;;;11.12;60.84
48800;BME280;34611;47.964;7.982;2023-04-19T05:25:00;97038.72;;;11.12;60.85
48800;BME280;34611;47.964;7.982;2023-04-19T05:32:01;97050.78;;;11.13;60.76
48800;BME280;34611;47.964;7.982;2023-04-19T05:39:05;97056.81;;;11.13;60.91
48800;BME280;34611;47.964;7.982;2023-04-19T05:46:05;97047.22;;;11.14;60.78
48800;BME280;34611;47.964;7.982;2023-04-19T05:53:06;97047.38;;;11.12;60.91
48800;BME280;34611;47.964;7.982;2023-04-19T06:00:06;97045.69;;;11.11;60.97
48800;BME280;34611;47.964;7.982;2023-04-19T06:07:18;97049.13;;;11.12;61.01
48800;BME280;34611;47.964;7.982;2023-04-19T06:14:18;97059.53;;;11.12;60.86
48800;BME280;34611;47.964;7.982;2023-04-19T06:21:18;97058.59;;;11.13;60.72
48800;BME280;34611;47.964;7.982;2023-04-19T06:28:18;97057.78;;;11.12;60.77
48800;BME280;34611;47.964;7.982;2023-04-19T06:35:19;97059.53;;;11.12;60.78
48800;BME280;34611;47.964;7.982;2023-04-19T06:42:19;97055.16;;;11.12;60.87
48800;BME280;34611;47.964;7.982;2023-04-19T06:49:19;97062.97;;;11.12;60.66
48800;BME280;34611;47.964;7.982;2023-04-19T07:03:41;97058.72;;;11.11;60.90
48800;BME280;34611;47.964;7.982;2023-04-19T07:10:41;97063.09;;;11.11;60.83
48800;BME280;34611;47.964;7.982;2023-04-19T07:17:42;97067.34;;;11.12;61.06
48800;BME280;34611;47.964;7.982;2023-04-19T07:24:43;97061.44;;;11.10;61.08
48800;BME280;34611;47.964;7.982;2023-04-19T07:31:43;97055.16;;;11.12;60.99
48800;BME280;34611;47.964;7.982;2023-04-19T07:38:44;97055.16;;;11.12;60.95
48800;BME280;34611;47.964;7.982;2023-04-19T07:45:44;97058.59;;;11.13;61.01
48800;BME280;34611;47.964;7.982;2023-04-19T07:52:45;97064.63;;;11.13;61.08
48800;BME280;34611;47.964;7.982;2023-04-19T07:59:45;97050.78;;;11.13;60.75
48800;BME280;34611;47.964;7.982;2023-04-19T08:06:45;97051.88;;;11.10;61.07
48800;BME280;34611;47.964;7.982;2023-04-19T08:13:46;97048.19;;;11.13;60.86
48800;BME280;34611;47.964;7.982;2023-04-19T08:20:46;97052.56;;;11.12;60.89
48800;BME280;34611;47.964;7.982;2023-04-19T08:27:46;97048.31;;;11.11;60.87
48800;BME280;34611;47.964;7.982;2023-04-19T08:34:47;97045.69;;;11.11;60.97
48800;BME280;34611;47.964;7.982;2023-04-19T08:41:47;97043.91;;;11.12;61.06
48800;BME280;34611;47.964;7.982;2023-04-19T08:48:48;97045.69;;;11.11;60.90
48800;BME280;34611;47.964;7.982;2023-04-19T08:55:49;97043.91;;;11.12;60.98
48800;BME280;34611;47.964;7.982;2023-04-19T09:02:50;97040.38;;;11.13;60.81
48800;BME280;34611;47.964;7.982;2023-04-19T09:10:03;97033.50;;;11.12;60.79
48800;BME280;34611;47.964;7.982;2023-04-19T09:17:12;97031.06;;;11.10;60.95
48800;BME280;34611;47.964;7.982;2023-04-19T09:24:15;97022.28;;;11.11;60.79
48800;BME280;34611;47.964;7.982;2023-04-19T09:31:16;97025.72;;;11.12;60.70
48800;BME280;34611;47.964;7.982;2023-04-19T09:38:17;97010.09;;;11.12;60.83
48800;BME280;34611;47.964;7.982;2023-04-19T09:45:18;97005.75;;;11.12;60.83
48800;BME280;34611;47.964;7.982;2023-04-19T09:52:18;97000.66;;;11.11;60.84
48800;BME280;34611;47.964;7.982;2023-04-19T09:59:18;96999.69;;;11.12;60.93
48800;BME280;34611;47.964;7.982;2023-04-19T10:06:18;96996.28;;;11.11;60.88
48800;BME280;34611;47.964;7.982;2023-04-19T10:13:19;96981.47;;;11.12;60.94
48800;BME280;34611;47.964;7.982;2023-04-19T10:20:23;96978.06;;;11.11;61.04
48800;BME280;34611;47.964;7.982;2023-04-19T10:27:25;96973.81;;;11.10;60.99
48800;BME280;34611;47.964;7.982;2023-04-19T10:34:35;96979.72;;;11.12;60.92
48800;BME280;34611;47.964;7.982;2023-04-19T10:48:59;96971.06;;;11.12;60.88
48800;BME280;34611;47.964;7.982;2023-04-19T10:55:59;96967.53;;;11.13;60.84
48800;BME280;34611;47.964;7.982;2023-04-19T11:03:00;96953.81;;;11.11;60.91
48800;BME280;34611;47.964;7.982;2023-04-19T11:10:27;96944.25;;;11.11;60.78
48800;BME280;34611;47.964;7.982;2023-04-19T11:17:30;96939.03;;;11.11;60.92
48800;BME280;34611;47.964;7.982;2023-04-19T11:24:31;96936.44;;;11.11;60.82
48800;BME280;34611;47.964;7.982;2023-04-19T11:31:34;96933.81;;;11.11;60.97
48800;BME280;34611;47.964;7.982;2023-04-19T11:38:35;96934.66;;;11.12;60.83
48800;BME280;34611;47.964;7.982;2023-04-19T11:45:36;96937.25;;;11.12;61.07
48800;BME280;34611;47.964;7.982;2023-04-19T11:52:37;96930.44;;;11.21;60.91
48800;BME280;34611;47.964;7.982;2023-04-19T11:59:37;96921.41;;;11.15;61.23
48800;BME280;34611;47.964;7.982;2023-04-19T12:06:38;96918.91;;;11.13;61.30
48800;BME280;34611;47.964;7.982;2023-04-19T12:13:38;96911.94;;;11.14;61.25
48800;BME280;34611;47.964;7.982;2023-04-19T12:20:44;96901.53;;;11.14;61.11
48800;BME280;34611;47.964;7.982;2023-04-19T12:27:45;96897.16;;;11.14;61.29
48800;BME280;34611;47.964;7.982;2023-04-19T12:34:45;96885.91;;;11.14;61.21
48800;BME280;34611;47.964;7.982;2023-04-19T12:41:45;96889.47;;;11.13;61.28
48800;BME280;34611;47.964;7.982;2023-04-19T12:48:47;96884.16;;;11.14;61.33
48800;BME280;34611;47.964;7.982;2023-04-19T12:55:48;96876.19;;;11.16;61.31
48800;BME280;34611;47.964;7.982;2023-04-19T13:02:48;96864.97;;;11.16;61.28
48800;BME280;34611;47.964;7.982;2023-04-19T13:09:49;96859.78;;;11.16;61.42
48800;BME280;34611;47.964;7.982;2023-04-19T13:16:49;96859.78;;;11.16;61.61
48800;BME280;34611;47.964;7.982;2023-04-19T13:23:49;96844.16;;;11.16;61.32
48800;BME280;34611;47.964;7.982;2023-04-19T13:30:49;96841.56;;;11.16;61.50
48800;BME280;34611;47.964;7.982;2023-04-19T13:37:50;96828.66;;;11.14;61.59
48800;BME280;34611;47.964;7.982;2023-04-19T13:44:50;96819.94;;;11.15;61.67
48800;BME280;34611;47.964;7.982;2023-04-19T13:51:51;96818.97;;;11.16;61.58
48800;BME280;34611;47.964;7.982;2023-04-19T13:58:51;96799.13;;;11.15;61.71
48800;BME280;34611;47.964;7.982;2023-04-19T14:05:51;96799.13;;;11.15;61.90
48800;BME280;34611;47.964;7.982;2023-04-19T14:12:52;96787.72;;;11.16;61.62
48800;BME280;34611;47.964;7.982;2023-04-19T14:19:52;96785.94;;;11.17;61.83
48800;BME280;34611;47.964;7.982;2023-04-19T14:26:52;96785.13;;;11.16;61.60
48800;BME280;34611;47.964;7.982;2023-04-19T14:33:52;96771.31;;;11.16;61.89
48800;BME280;34611;47.964;7.982;2023-04-19T14:40:53;96767.75;;;11.17;61.97
48800;BME280;34611;47.964;7.982;2023-04-19T14:47:53;96754.72;;;11.17;61.93
48800;BME280;34611;47.964;7.982;2023-04-19T14:54:53;96746.09;;;11.16;61.89
48800;BME280;34611;47.964;7.982;2023-04-19T15:01:54;96744.31;;;11.17;62.08
48800;BME280;34611;47.964;7.982;2023-04-19T15:08:54;96739.13;;;11.17;61.99
48800;BME280;34611;47.964;7.982;2023-04-19T15:15:54;96730.38;;;11.18;61.78
48800;BME280;34611;47.964;7.982;2023-04-19T15:22:55;96729.56;;;11.17;61.91
48800;BME280;34611;47.964;7.982;2023-04-19T15:29:55;96723.38;;;11.18;61.80
48800;BME280;34611;47.964;7.982;2023-04-19T15:36:55;96720.09;;;11.16;61.83
48800;BME280;34611;47.964;7.982;2023-04-19T15:43:56;96724.34;;;11.17;62.04
48800;BME280;34611;47.964;7.982;2023-04-19T15:50:56;96720.78;;;11.18;62.10
48800;BME280;34611;47.964;7.982;2023-04-19T15:57:57;96708.75;;;11.17;61.73
48800;BME280;34611;47.964;7.982;2023-04-19T16:04:57;96712.97;;;11.18;62.08
48800;BME280;34611;47.964;7.982;2023-04-19T16:11:57;96715.56;;;11.18;61.97
48800;BME280;34611;47.964;7.982;2023-04-19T16:18:57;96732.97;;;11.18;61.85
48800;BME280;34611;47.964;7.982;2023-04-19T16:25:58;96739.97;;;11.17;62.03
48800;BME280;34611;47.964;7.982;2023-04-19T16:32:58;96740.66;;;11.19;62.04
48800;BME280;34611;47.964;7.982;2023-04-19T16:39:59;96739.13;;;11.17;62.09
48800;BME280;34611;47.964;7.982;2023-04-19T16:46:59;96725.97;;;11.18;61.94
48800;BME280;34611;47.964;7.982;2023-04-19T16:53:59;96722.56;;;11.18;62.22
48800;BME280;34611;47.964;7.982;2023-04-19T17:00:59;96724.34;;;11.17;62.35
48800;BME280;34611;47.964;7.982;2023-04-19T17:08:01;96720.78;;;11.18;62.20
48800;BME280;34611;47.964;7.982;2023-04-19T17:15:01;96715.56;;;11.18;62.18
48800;BME280;34611;47.964;7.982;2023-04-19T17:22:02;96714.63;;;11.19;62.22
48800;BME280;34611;47.964;7.982;2023-04-19T17:29:04;96712.03;;;11.19;62.19
48800;BME280;34611;47.964;7.982;2023-04-19T17:36:05;96713.78;;;11.19;62.20
48800;BME280;34611;47.964;7.982;2023-04-19T17:43:05;96713.78;;;11.19;62.19
48800;BME280;34611;47.964;7.982;2023-04-19T17:50:06;96720.78;;;11.18;62.24
48800;BME280;34611;47.964;7.982;2023-04-19T17:57:06;96729.41;;;11.19;62.20
48800;BME280;34611;47.964;7.982;2023-04-19T18:04:07;96732.84;;;11.19;62.19
48800;BME280;34611;47.964;7.982;2023-04-19T18:11:09;96735.44;;;11.19;62.45
48800;BME280;34611;47.964;7.982;2023-04-19T18:18:09;96739.69;;;11.20;62.26
48800;BME280;34611;47.964;7.982;2023-04-19T18:25:09;96744.06;;;11.20;62.24
48800;BME280;34611;47.964;7.982;2023-04-19T18:32:10;96750.09;;;11.20;62.32
48800;BME280;34611;47.964;7.982;2023-04-19T18:39:10;96751.75;;;11.21;62.47
48800;BME280;34611;47.964;7.982;2023-04-19T18:46:12;96758.88;;;11.19;62.66
48800;BME280;34611;47.964;7.982;2023-04-19T18:53:12;96770.91;;;11.20;62.52
48800;BME280;34611;47.964;7.982;2023-04-19T19:00:13;96773.50;;;11.20;62.58
48800;BME280;34611;47.964;7.982;2023-04-19T19:07:13;96787.47;;;11.19;62.31
48800;BME280;34611;47.964;7.982;2023-04-19T19:14:13;96794.31;;;11.20;62.55
48800;BME280;34611;47.964;7.982;2023-04-19T19:21:14;96799.53;;;11.20;62.29
48800;BME280;34611;47.964;7.982;2023-04-19T19:28:14;96808.00;;;11.22;62.44
48800;BME280;34611;47.964;7.982;2023-04-19T19:35:15;96804.59;;;11.22;62.54
48800;BME280;34611;47.964;7.982;2023-04-19T19:42:15;96795.13;;;11.21;62.45
48800;BME280;34611;47.964;7.982;2023-04-19T19:49:16;96786.38;;;11.22;62.44
48800;BME280;34611;47.964;7.982;2023-04-19T19:56:16;96774.47;;;11.19;62.47
48800;BME280;34611;47.964;7.982;2023-04-19T20:03:17;96772.56;;;11.21;62.47
48800;BME280;34611;47.964;7.982;2023-04-19T20:10:17;96763.09;;;11.20;62.27
48800;BME280;34611;47.964;7.982;2023-04-19T20:17:18;96751.06;;;11.19;62.57
48800;BME280;34611;47.964;7.982;2023-04-19T20:24:18;96756.94;;;11.21;62.32
48800;BME280;34611;47.964;7.982;2023-04-19T20:31:20;96751.88;;;11.20;62.34
48800;BME280;34611;47.964;7.982;2023-04-19T20:38:20;96739.69;;;11.20;62.61
48800;BME280;34611;47.964;7.982;2023-04-19T20:45:23;96729.28;;;11.20;62.42
48800;BME280;34611;47.964;7.982;2023-04-19T20:52:24;96731.88;;;11.20;62.56
48800;BME280;34611;47.964;7.982;2023-04-19T20:59:25;96721.47;;;11.20;62.39
48800;BME280;34611;47.964;7.982;2023-04-19T21:06:25;96724.06;;;11.20;62.38
48800;BME280;34611;47.964;7.982;2023-04-19T21:13:25;96718.03;;;11.20;62.56
48800;BME280;34611;47.964;7.982;2023-04-19T21:20:26;96711.19;;;11.19;62.62
48800;BME280;34611;47.964;7.982;2023-04-19T21:27:26;96710.25;;;11.20;62.35
48800;BME280;34611;47.964;7.982;2023-04-19T21:34:26;96715.44;;;11.20;62.65
48800;BME280;34611;47.964;7.982;2023-04-19T21:41:27;96712.84;;;11.20;62.43
48800;BME280;34611;47.964;7.982;2023-04-19T21:48:27;96718.88;;;11.20;62.47
48800;BME280;34611;47.964;7.982;2023-04-19T21:55:27;96718.88;;;11.20;62.62
48800;BME280;34611;47.964;7.982;2023-04-19T22:02:28;96710.38;;;11.18;62.42
48800;BME280;34611;47.964;7.982;2023-04-19T22:09:28;96713.66;;;11.20;62.64
48800;BME280;34611;47.964;7.982;2023-04-19T22:16:28;96712.03;;;11.19;62.53
48800;BME280;34611;47.964;7.982;2023-04-19T22:23:31;96705.84;;;11.20;62.76
48800;BME280;34611;47.964;7.982;2023-04-19T22:30:31;96698.03;;;11.20;62.62
48800;BME280;34611;47.964;7.982;2023-04-19T22:37:32;96697.22;;;11.20;62.72
48800;BME280;34611;47.964;7.982;2023-04-19T22:44:32;96696.41;;;11.19;62.57
48800;BME280;34611;47.964;7.982;2023-04-19T22:51:32;96679.84;;;11.20;62.45
48800;BME280;34611;47.964;7.982;2023-04-19T22:58:33;96675.44;;;11.21;62.71
48800;BME280;34611;47.964;7.982;2023-04-19T23:05:33;96658.19;;;11.20;62.67
48800;BME280;34611;47.964;7.982;2023-04-19T23:12:33;96645.19;;;11.20;62.68
48800;BME280;34611;47.964;7.982;2023-04-19T23:19:34;96635.47;;;11.22;62.63
48800;BME280;34611;47.964;7.982;2023-04-19T23:26:35;96626.16;;;11.19;62.85
48800;BME280;34611;47.964;7.982;2023-04-19T23:33:35;96618.38;;;11.19;62.77
48800;BME280;34611;47.964;7.982;2023-04-19T23:40:36;96613.97;;;11.20;62.55
48800;BME280;34611;47.964;7.982;2023-04-19T23:47:36;96606.16;;;11.20;62.83
48800;BME280;34611;47.964;7.982;2023-04-19T23:54:36;96609.59;;;11.20;62.74
